Time;durP1;ratioP1;P1;durP2;ratioP2;P2;SDS_P1;SDS_P2;PMS_P1;PMS_P2;Temp;Humidity;BMP_temperature;BMP_pressure;BME280_temperature;BME280_humidity;BME280_pressure;Samples;Min_cycle;Max_cycle;Signal;HPM_P1;HPM_P2
2021/06/28 00:02:17;;;;;;;2.35;1.95;;;22.70;62.60;;;22.76;51.66;97496.03;5025437;28;20054;-39
2021/06/28 00:04:45;;;;;;;2.30;2.10;;;22.70;62.90;;;22.76;51.93;97490.59;5023848;28;20051;-39
2021/06/28 00:07:13;;;;;;;2.95;1.83;;;22.70;62.90;;;22.76;52.04;97484.31;5024643;28;20335;-39
2021/06/28 00:09:41;;;;;;;2.88;2.40;;;22.70;63.00;;;22.78;52.23;97491.19;5026211;28;20064;-39
2021/06/28 00:12:09;;;;;;;2.72;2.28;;;22.70;63.40;;;22.80;52.23;97488.22;5024162;28;20374;-39
2021/06/28 00:14:37;;;;;;;2.30;2.00;;;22.60;63.80;;;22.78;52.82;97488.47;5021893;28;20064;-39
2021/06/28 00:17:05;;;;;;;2.63;2.00;;;22.60;64.30;;;22.75;52.69;97499.78;5025962;28;20052;-39
2021/06/28 00:19:33;;;;;;;3.20;2.53;;;22.60;64.50;;;22.73;52.84;97503.84;5025354;28;20355;-39
2021/06/28 00:22:01;;;;;;;3.08;1.88;;;22.50;64.70;;;22.68;53.19;97507.28;5023900;28;20045;-39
2021/06/28 00:24:29;;;;;;;2.45;2.20;;;22.50;64.90;;;22.63;53.34;97514.50;5023550;28;20054;-39
2021/06/28 00:26:57;;;;;;;3.05;1.92;;;22.50;65.20;;;22.60;53.23;97513.91;5026069;28;20297;-38
2021/06/28 00:29:25;;;;;;;2.45;2.25;;;22.40;65.30;;;22.57;53.67;97519.00;5026339;28;20053;-38
2021/06/28 00:31:55;;;;;;;2.08;1.92;;;22.40;65.80;;;22.51;53.56;97519.97;5026856;28;20057;-38
2021/06/28 00:34:23;;;;;;;3.00;2.10;;;22.30;65.40;;;22.46;53.08;97511.72;5028143;28;20049;-39
2021/06/28 00:36:51;;;;;;;2.65;2.03;;;22.20;65.20;;;22.41;53.38;97512.41;5027062;28;20048;-39
2021/06/28 00:39:19;;;;;;;2.78;1.73;;;22.20;65.30;;;22.41;53.31;97488.84;5027890;28;20060;-38
2021/06/28 00:41:47;;;;;;;2.63;1.70;;;22.20;65.00;;;22.41;52.92;97490.72;5028157;28;20053;-38
2021/06/28 00:44:15;;;;;;;3.53;1.75;;;22.20;64.50;;;22.39;52.77;97490.16;5028374;28;20063;-39
2021/06/28 00:46:43;;;;;;;5.15;1.95;;;22.20;64.40;;;22.40;52.54;97481.78;5027767;28;20068;-38
2021/06/28 00:49:11;;;;;;;1.92;1.70;;;22.20;64.30;;;22.39;52.56;97482.00;5027214;28;20041;-38
2021/06/28 00:51:39;;;;;;;2.70;1.92;;;22.20;63.80;;;22.31;52.13;97472.38;5029197;28;20203;-39
2021/06/28 00:54:08;;;;;;;2.10;1.70;;;22.20;63.60;;;22.33;52.46;97470.25;5027588;28;20068;-38
2021/06/28 00:56:37;;;;;;;2.55;1.75;;;22.20;63.40;;;22.36;52.18;97468.94;5027446;28;20060;-39
2021/06/28 00:59:06;;;;;;;2.30;1.77;;;22.20;63.30;;;22.39;52.14;97463.03;5026781;28;20059;-39
2021/06/28 01:01:34;;;;;;;2.10;1.75;;;22.20;63.60;;;22.38;52.64;97464.09;5025922;28;20060;-39
2021/06/28 01:04:02;;;;;;;2.03;1.80;;;22.30;63.70;;;22.40;52.36;97451.94;5026246;28;20219;-39
2021/06/28 01:06:30;;;;;;;2.05;1.77;;;22.30;63.60;;;22.35;51.91;97454.56;5027526;28;20063;-38
2021/06/28 01:08:58;;;;;;;2.00;1.80;;;22.20;62.80;;;22.32;51.78;97459.66;5027441;28;20061;-38
2021/06/28 01:11:26;;;;;;;2.00;1.60;;;22.20;62.40;;;22.30;51.40;97449.03;5027875;28;20335;-38
2021/06/28 01:13:54;;;;;;;2.58;1.50;;;22.20;62.10;;;22.30;50.95;97451.75;5027097;28;20201;-38
2021/06/28 01:16:22;;;;;;;4.07;1.80;;;22.20;61.80;;;22.32;51.36;97441.47;5027479;28;20045;-38
2021/06/28 01:18:51;;;;;;;1.60;1.50;;;22.20;61.90;;;22.30;51.52;97454.47;5026761;28;20238;-38
2021/06/28 01:21:21;;;;;;;2.38;1.90;;;22.20;62.00;;;22.29;51.29;97444.66;5027207;28;20056;-38
2021/06/28 01:23:49;;;;;;;2.05;1.70;;;22.20;62.10;;;22.30;51.36;97440.91;5026115;28;20277;-39
2021/06/28 01:26:17;;;;;;;2.38;1.75;;;22.20;62.10;;;22.33;51.16;97431.44;5026456;28;20057;-38
2021/06/28 01:28:45;;;;;;;2.15;1.95;;;22.20;62.00;;;22.35;51.44;97422.03;5025485;28;20049;-38
2021/06/28 01:31:13;;;;;;;1.70;1.60;;;22.30;61.90;;;22.38;51.10;97437.81;5025336;28;20056;-38
2021/06/28 01:33:41;;;;;;;3.22;1.70;;;22.30;61.90;;;22.40;50.94;97427.53;5027374;28;20228;-38
2021/06/28 01:36:10;;;;;;;3.45;1.95;;;22.30;61.70;;;22.43;51.17;97428.97;5027436;28;20049;-38
2021/06/28 01:38:38;;;;;;;3.03;1.70;;;22.30;61.40;;;22.48;50.85;97430.94;5026774;28;20339;-38
2021/06/28 01:41:06;;;;;;;2.60;1.92;;;22.40;61.20;;;22.50;51.13;97431.50;5025191;28;20049;-38
2021/06/28 01:43:34;;;;;;;1.83;1.65;;;22.50;61.40;;;22.54;50.80;97446.22;5027389;28;20068;-38
2021/06/28 01:46:02;;;;;;;2.28;2.08;;;22.50;61.30;;;22.56;50.95;97436.78;5027494;28;20061;-38
2021/06/28 01:48:30;;;;;;;2.50;2.30;;;22.50;61.30;;;22.58;50.88;97450.91;5026669;28;20059;-38
2021/06/28 01:50:58;;;;;;;2.15;1.90;;;22.50;61.50;;;22.60;51.29;97450.66;5027629;28;20216;-38
2021/06/28 01:53:26;;;;;;;3.17;2.00;;;22.60;61.60;;;22.59;51.38;97451.75;5025937;28;20054;-38
2021/06/28 01:55:54;;;;;;;2.17;1.55;;;22.50;61.90;;;22.57;51.63;97467.47;5025498;28;20365;-38
2021/06/28 01:58:22;;;;;;;2.17;1.98;;;22.50;62.20;;;22.56;51.80;97454.94;5026283;28;20058;-38
2021/06/28 02:00:54;;;;;;;3.50;2.20;;;22.50;62.70;;;22.56;51.62;97463.09;5025677;28;20237;-38
2021/06/28 02:03:24;;;;;;;2.70;2.20;;;22.40;63.00;;;22.54;52.22;97455.19;5025660;28;20058;-38
2021/06/28 02:05:59;;;;;;;2.58;2.33;;;22.30;63.30;;;22.51;52.03;97455.69;5027304;28;20235;-38
2021/06/28 02:08:33;;;;;;;2.45;2.15;;;22.40;64.30;;;22.47;52.61;97462.66;5026796;28;20054;-38
2021/06/28 02:11:06;;;;;;;2.03;1.83;;;22.30;64.50;;;22.46;52.15;97465.59;5025613;28;20295;-38
2021/06/28 02:13:37;;;;;;;2.90;2.10;;;22.30;64.20;;;22.46;52.32;97465.59;5025205;28;20056;-38
2021/06/28 02:16:06;;;;;;;1.95;1.60;;;22.30;64.00;;;22.44;52.22;97467.75;5024695;28;20063;-38
2021/06/28 02:18:34;;;;;;;1.98;1.77;;;22.20;63.80;;;22.36;52.84;97463.53;5025466;28;20053;-38
2021/06/28 02:21:02;;;;;;;2.30;2.00;;;22.10;65.10;;;22.31;52.69;97460.69;5022921;28;20053;-39
2021/06/28 02:23:38;;;;;;;3.10;2.17;;;22.00;65.10;;;22.27;53.00;97467.69;5026302;28;20061;-39
2021/06/28 02:26:09;;;;;;;2.70;2.10;;;22.00;65.70;;;22.25;53.76;97472.50;5025922;28;20069;-38
2021/06/28 02:28:43;;;;;;;2.53;2.33;;;22.00;65.60;;;22.26;53.29;97471.47;5026200;28;20251;-38
2021/06/28 02:31:16;;;;;;;2.25;2.00;;;22.10;65.50;;;22.24;53.63;97468.97;5025580;28;20243;-38
2021/06/28 02:33:44;;;;;;;2.23;2.03;;;22.00;65.30;;;22.21;53.68;97466.72;5025679;28;20424;-39
2021/06/28 02:36:12;;;;;;;2.75;2.10;;;22.00;65.50;;;22.20;53.87;97476.75;5025943;28;20061;-38
2021/06/28 02:38:42;;;;;;;2.28;2.08;;;22.00;65.70;;;22.20;53.92;97479.44;5024916;28;20377;-38
2021/06/28 02:41:11;;;;;;;2.20;1.88;;;22.00;65.90;;;22.21;54.04;97488.41;5026130;28;20556;-38
2021/06/28 02:43:41;;;;;;;2.60;1.92;;;22.00;66.00;;;22.21;54.32;97500.06;5025955;28;20079;-38
2021/06/28 02:46:11;;;;;;;2.08;1.88;;;22.00;66.30;;;22.19;54.00;97498.66;5024884;28;20251;-39
2021/06/28 02:48:40;;;;;;;3.42;2.30;;;21.90;66.60;;;22.09;53.86;97498.47;5025555;28;20051;-39
2021/06/28 02:51:12;;;;;;;2.70;2.30;;;21.80;66.70;;;22.03;54.20;97487.50;5025115;28;20068;-38
2021/06/28 02:53:40;;;;;;;2.38;1.98;;;21.70;66.80;;;21.97;54.01;97484.94;5025248;28;20049;-38
2021/06/28 02:56:15;;;;;;;2.47;2.05;;;21.60;66.80;;;21.97;54.10;97485.75;5025843;28;20246;-39
2021/06/28 02:58:51;;;;;;;2.25;2.03;;;21.60;66.70;;;21.97;54.36;97482.22;5023821;28;20053;-39
2021/06/28 03:01:22;;;;;;;2.22;2.03;;;21.70;67.00;;;21.96;54.30;97481.38;5022431;28;20339;-39
2021/06/28 03:03:51;;;;;;;2.20;2.00;;;21.70;66.90;;;21.95;54.23;97468.91;5025208;28;20063;-38
2021/06/28 03:06:20;;;;;;;2.80;1.90;;;21.70;66.80;;;21.95;54.45;97465.38;5008144;28;20057;-39
2021/06/28 03:08:48;;;;;;;2.45;2.25;;;21.70;66.80;;;21.95;54.26;97457.25;5024960;28;20056;-39
2021/06/28 03:11:20;;;;;;;2.95;2.10;;;21.70;66.70;;;21.96;54.23;97459.69;5025560;28;20049;-38
2021/06/28 03:13:49;;;;;;;2.75;2.20;;;21.80;66.60;;;21.97;54.41;97457.81;5023722;28;20493;-39
2021/06/28 03:16:18;;;;;;;2.40;2.20;;;21.80;66.40;;;21.98;54.38;97463.03;5024990;28;20055;-38
2021/06/28 03:18:46;;;;;;;3.55;2.42;;;21.90;66.30;;;22.00;54.39;97466.31;5024217;28;20055;-39
2021/06/28 03:21:14;;;;;;;2.20;2.00;;;21.90;66.30;;;22.00;54.82;97458.19;5024406;28;20057;-38
2021/06/28 03:23:44;;;;;;;3.28;2.38;;;21.90;66.70;;;22.02;54.76;97457.91;5026184;28;20093;-39
2021/06/28 03:26:13;;;;;;;2.60;2.40;;;21.90;67.20;;;22.01;55.03;97465.22;5025748;28;20041;-39
2021/06/28 03:28:41;;;;;;;2.47;2.00;;;21.90;67.50;;;22.01;55.40;97456.28;5026219;28;20061;-39
2021/06/28 03:31:11;;;;;;;2.60;2.05;;;21.90;67.70;;;22.00;55.13;97446.50;5025117;28;20056;-39
2021/06/28 03:33:39;;;;;;;2.50;2.30;;;21.80;67.60;;;21.98;55.75;97441.34;5023244;28;20057;-39
2021/06/28 03:36:07;;;;;;;2.45;2.10;;;21.80;68.00;;;21.98;55.60;97426.94;5024826;28;20053;-38
2021/06/28 03:38:36;;;;;;;3.72;2.20;;;21.80;67.90;;;21.98;55.70;97416.09;5024715;28;20235;-39
2021/06/28 03:41:04;;;;;;;2.30;2.10;;;21.80;67.80;;;21.99;55.75;97412.34;5024695;28;20358;-38
2021/06/28 03:43:32;;;;;;;2.78;2.13;;;21.80;67.90;;;21.98;55.42;97424.22;5024625;28;20053;-38
2021/06/28 03:46:01;;;;;;;2.30;2.00;;;21.80;67.90;;;21.96;55.96;97426.34;5007408;28;20049;-38
2021/06/28 03:48:29;;;;;;;4.47;2.47;;;21.80;68.10;;;21.95;55.55;97427.44;5025619;28;20657;-38
2021/06/28 03:50:57;;;;;;;2.15;1.75;;;21.80;68.00;;;21.97;55.38;97412.56;5025378;28;20046;-38
2021/06/28 03:53:25;;;;;;;3.42;2.45;;;21.80;67.50;;;21.97;55.45;97411.75;5025048;28;20212;-38
2021/06/28 03:55:53;;;;;;;2.17;1.98;;;21.90;67.20;;;21.96;55.36;97416.34;5025345;28;20465;-40
2021/06/28 03:58:21;;;;;;;2.63;2.20;;;21.90;67.20;;;21.97;55.39;97418.00;5024662;28;20306;-38
2021/06/28 04:00:49;;;;;;;3.03;2.17;;;21.90;67.20;;;21.97;55.19;97426.13;5025108;28;20060;-39
2021/06/28 04:03:18;;;;;;;3.33;1.98;;;21.80;67.40;;;21.94;55.74;97423.88;5026075;28;20259;-39
2021/06/28 04:05:46;;;;;;;3.88;2.22;;;21.80;67.80;;;21.93;56.01;97432.28;5028523;28;20071;-38
2021/06/28 04:08:14;;;;;;;3.13;2.10;;;21.80;68.30;;;21.92;56.15;97433.31;5027471;28;20063;-39
2021/06/28 04:10:42;;;;;;;2.03;1.70;;;21.70;68.50;;;21.88;55.94;97434.88;5028503;28;20045;-38
2021/06/28 04:13:10;;;;;;;2.65;2.03;;;21.70;68.60;;;21.83;56.53;97446.44;5029640;28;20050;-38
2021/06/28 04:15:38;;;;;;;3.28;2.42;;;21.70;69.10;;;21.80;56.85;97445.00;5028494;28;20396;-38
2021/06/28 04:18:06;;;;;;;3.67;2.67;;;21.70;69.60;;;21.78;56.87;97441.72;5029201;28;20055;-38
2021/06/28 04:20:34;;;;;;;2.78;2.40;;;21.70;69.80;;;21.70;57.18;97447.50;5028695;28;20064;-38
2021/06/28 04:23:02;;;;;;;2.90;2.30;;;21.70;69.80;;;21.69;57.61;97447.72;5028939;28;20049;-38
2021/06/28 04:25:30;;;;;;;3.08;2.60;;;21.60;70.10;;;21.68;57.56;97443.38;5028985;28;20075;-38
2021/06/28 04:27:59;;;;;;;4.55;2.28;;;21.60;70.30;;;21.62;57.97;97429.72;5009790;28;20496;-38
2021/06/28 04:30:27;;;;;;;3.80;2.30;;;21.60;70.40;;;21.66;57.58;97415.72;5038210;23;20469;-38
2021/06/28 04:32:55;;;;;;;3.17;2.88;;;21.60;70.20;;;21.68;57.10;97406.28;5009818;28;20052;-38
2021/06/28 04:35:29;;;;;;;3.83;2.95;;;21.60;70.00;;;21.70;57.43;97412.28;5009557;28;20422;-38
2021/06/28 04:37:58;;;;;;;3.00;2.70;;;21.70;70.30;;;21.75;57.45;97420.53;5008123;28;20581;-40
2021/06/28 04:40:30;;;;;;;2.90;2.38;;;21.70;70.20;;;21.76;57.17;97427.56;5009907;28;20053;-40
2021/06/28 04:42:58;;;;;;;2.58;2.38;;;21.70;70.10;;;21.79;57.07;97435.25;5009334;28;20050;-38
2021/06/28 04:45:27;;;;;;;2.85;2.38;;;21.70;70.00;;;21.77;57.62;97434.66;5007229;28;20050;-38
2021/06/28 04:47:56;;;;;;;2.55;2.35;;;21.70;70.00;;;21.77;57.83;97450.06;5008259;28;20059;-38
2021/06/28 04:50:25;;;;;;;3.15;2.88;;;21.70;70.30;;;21.76;57.45;97460.09;5007884;28;20046;-39
2021/06/28 04:52:56;;;;;;;4.25;2.47;;;21.70;70.40;;;21.76;57.41;97456.56;5007557;28;20046;-39
2021/06/28 04:55:25;;;;;;;3.67;2.70;;;21.70;70.70;;;21.74;57.74;97450.56;5008069;28;20062;-39
2021/06/28 04:57:55;;;;;;;2.90;2.60;;;21.60;70.90;;;21.73;58.21;97462.44;5008231;28;20050;-39
2021/06/28 05:00:25;;;;;;;4.50;2.60;;;21.60;71.00;;;21.70;58.21;97457.53;5007420;28;20368;-39
2021/06/28 05:02:53;;;;;;;2.45;2.25;;;21.60;71.30;;;21.69;58.43;97459.38;5008848;28;20057;-39
2021/06/28 05:05:22;;;;;;;4.22;3.13;;;21.60;71.30;;;21.68;57.94;97465.06;5008284;28;20057;-39
2021/06/28 05:07:50;;;;;;;3.40;2.90;;;21.50;71.50;;;21.66;58.22;97459.88;5008612;28;20076;-39
2021/06/28 05:10:18;;;;;;;3.47;3.08;;;21.50;71.70;;;21.67;58.56;97457.97;5007268;28;20033;-39
2021/06/28 05:12:46;;;;;;;3.38;2.70;;;21.50;71.80;;;21.67;58.37;97455.28;5008457;28;20045;-39
2021/06/28 05:15:15;;;;;;;3.58;2.58;;;21.50;72.10;;;21.65;58.45;97454.69;5006342;28;20041;-38
2021/06/28 05:17:43;;;;;;;3.22;2.53;;;21.50;72.10;;;21.66;58.72;97457.16;5008395;28;20454;-39
2021/06/28 05:20:13;;;;;;;4.07;2.55;;;21.50;72.30;;;21.67;58.53;97461.50;5006885;28;20053;-39
2021/06/28 05:22:42;;;;;;;2.58;2.35;;;21.50;72.40;;;21.67;58.71;97460.69;5007350;28;20064;-38
2021/06/28 05:25:12;;;;;;;3.30;2.58;;;21.60;72.10;;;21.68;58.71;97459.63;5007365;28;20061;-40
2021/06/28 05:27:41;;;;;;;3.33;2.67;;;21.60;72.30;;;21.71;59.06;97462.69;5006445;28;20057;-39
2021/06/28 05:30:12;;;;;;;5.35;2.45;;;21.60;72.40;;;21.73;58.88;97459.72;5008591;28;20658;-39
2021/06/28 05:32:40;;;;;;;3.95;3.35;;;21.60;72.60;;;21.74;59.00;97453.28;5024500;28;20058;-39
2021/06/28 05:35:10;;;;;;;2.80;2.35;;;21.60;72.50;;;21.75;59.01;97454.91;5008143;28;20049;-39
2021/06/28 05:37:39;;;;;;;3.55;2.60;;;21.70;72.30;;;21.76;58.69;97446.53;5006762;28;20347;-40
2021/06/28 05:40:09;;;;;;;4.28;2.85;;;21.70;72.10;;;21.80;58.55;97446.91;5007605;28;20050;-39
2021/06/28 05:42:39;;;;;;;4.97;2.72;;;21.80;71.90;;;21.83;58.62;97441.00;5007320;28;20058;-40
2021/06/28 05:45:08;;;;;;;4.45;2.55;;;21.80;72.00;;;21.87;58.57;97444.03;5008140;28;20081;-40
2021/06/28 05:47:36;;;;;;;3.83;2.90;;;21.80;72.00;;;21.90;58.81;97449.00;5006122;28;20060;-40
2021/06/28 05:50:06;;;;;;;6.25;2.58;;;21.90;72.70;;;21.92;59.06;97444.97;5006725;28;20052;-40
2021/06/28 05:52:35;;;;;;;5.38;3.20;;;21.90;71.80;;;21.96;58.56;97448.03;5006848;28;20052;-40
2021/06/28 05:55:03;;;;;;;4.43;2.80;;;22.00;71.70;;;21.99;58.54;97447.56;5007735;28;20058;-40
2021/06/28 05:57:31;;;;;;;3.10;2.55;;;22.00;71.60;;;22.01;58.99;97450.88;5006755;28;20361;-40
2021/06/28 05:59:59;;;;;;;5.43;2.45;;;22.00;71.60;;;22.02;58.98;97445.22;5006315;28;20054;-40
2021/06/28 06:02:27;;;;;;;3.67;2.58;;;22.00;71.60;;;22.06;58.54;97447.44;5005228;28;20061;-40
2021/06/28 06:04:55;;;;;;;3.95;2.53;;;22.00;71.50;;;22.06;58.68;97453.66;5007368;28;20060;-40
2021/06/28 06:07:23;;;;;;;3.53;2.42;;;22.10;71.60;;;22.08;58.40;97458.84;5005216;28;20351;-40
2021/06/28 06:09:51;;;;;;;3.15;2.60;;;22.10;71.70;;;22.10;58.99;97462.13;5006305;28;20064;-40
2021/06/28 06:12:19;;;;;;;3.90;2.97;;;22.00;71.70;;;22.09;58.90;97458.63;5007405;28;20049;-40
2021/06/28 06:14:47;;;;;;;5.00;2.50;;;22.00;71.70;;;22.11;58.93;97463.81;5008260;28;20046;-40
2021/06/28 06:17:15;;;;;;;3.88;2.58;;;22.00;72.00;;;22.10;59.24;97451.28;5005744;28;20560;-40
2021/06/28 06:19:44;;;;;;;9.27;2.50;;;22.00;72.30;;;22.09;59.47;97447.78;5005926;28;20381;-40
2021/06/28 06:22:12;;;;;;;4.97;3.22;;;22.10;72.60;;;22.10;59.34;97451.28;5006057;28;20247;-40
2021/06/28 06:24:41;;;;;;;3.13;2.60;;;22.00;72.30;;;22.11;59.37;97434.00;5006413;28;20258;-39
2021/06/28 06:27:08;;;;;;;3.70;2.58;;;22.10;72.30;;;22.14;59.32;97436.19;5005864;28;20363;-40
2021/06/28 06:29:36;;;;;;;6.00;2.97;;;22.10;72.60;;;22.17;59.48;97438.44;5006502;28;20051;-39
2021/06/28 06:32:05;;;;;;;5.53;3.35;;;22.20;72.50;;;22.19;59.16;97439.84;5005313;28;20045;-39
2021/06/28 06:34:33;;;;;;;4.53;2.58;;;22.20;72.30;;;22.20;59.55;97443.38;5020855;28;20068;-39
2021/06/28 06:37:02;;;;;;;3.88;2.60;;;22.30;72.40;;;22.22;59.53;97454.81;5006420;28;20045;-39
2021/06/28 06:39:31;;;;;;;3.05;2.33;;;22.20;72.50;;;22.25;59.20;97451.63;5005224;28;20073;-39
2021/06/28 06:42:00;;;;;;;3.35;2.60;;;22.30;72.20;;;22.26;59.26;97447.88;5005615;28;20060;-39
2021/06/28 06:44:28;;;;;;;3.97;2.63;;;22.30;72.20;;;22.27;59.07;97459.53;5005219;28;20049;-39
2021/06/28 06:46:56;;;;;;;5.35;2.53;;;22.20;71.80;;;22.28;59.15;97461.19;5005958;28;20247;-39
2021/06/28 06:49:24;;;;;;;3.35;2.60;;;22.30;72.10;;;22.30;59.29;97459.88;5006037;28;20069;-39
2021/06/28 06:51:52;;;;;;;5.28;2.50;;;22.30;72.40;;;22.33;59.60;97462.13;5003556;28;20054;-39
2021/06/28 06:54:20;;;;;;;3.40;2.70;;;22.50;72.50;;;22.39;59.39;97466.59;5004291;28;20049;-39
2021/06/28 06:56:49;;;;;;;3.33;2.97;;;22.50;72.40;;;22.46;59.54;97466.44;5007290;28;20052;-39
2021/06/28 06:59:17;;;;;;;3.85;2.53;;;22.60;72.50;;;22.52;59.71;97475.47;5005379;28;20072;-39
2021/06/28 07:01:45;;;;;;;3.17;2.42;;;22.60;72.30;;;22.57;59.51;97478.31;5004934;28;20451;-39
2021/06/28 07:04:14;;;;;;;6.03;3.38;;;22.70;72.20;;;22.56;59.30;97472.03;5006129;28;20210;-39
2021/06/28 07:06:43;;;;;;;3.47;2.65;;;22.70;71.80;;;22.59;59.31;97474.28;5005223;28;20053;-39
2021/06/28 07:09:15;;;;;;;4.05;2.60;;;22.70;72.10;;;22.63;59.20;97476.50;5005326;28;20261;-39
2021/06/28 07:11:43;;;;;;;6.72;2.88;;;22.80;72.00;;;22.64;59.28;97484.38;5005010;28;20355;-39
2021/06/28 07:14:12;;;;;;;3.78;3.30;;;22.80;71.70;;;22.66;59.32;97479.53;5014288;28;20251;-40
2021/06/28 07:16:41;;;;;;;3.30;2.50;;;22.80;71.60;;;22.69;59.13;97476.34;5018768;28;20046;-39
2021/06/28 07:19:10;;;;;;;2.90;2.50;;;22.90;71.60;;;22.73;59.30;97482.94;5024625;28;20242;-39
2021/06/28 07:21:38;;;;;;;3.42;2.60;;;22.90;71.30;;;22.72;58.92;97486.72;5041326;28;20087;-39
2021/06/28 07:24:07;;;;;;;3.25;2.22;;;22.90;71.10;;;22.77;58.80;97486.00;5013368;28;20059;-38
2021/06/28 07:26:36;;;;;;;3.42;2.45;;;22.90;71.00;;;22.80;58.57;97491.75;5010204;28;20228;-38
2021/06/28 07:29:05;;;;;;;6.45;2.63;;;22.90;70.70;;;22.84;58.26;97494.81;5007984;28;20064;-40
2021/06/28 07:31:34;;;;;;;3.13;2.72;;;23.00;70.30;;;22.87;58.14;97509.78;5006731;28;20052;-39
2021/06/28 07:34:03;;;;;;;5.03;3.17;;;23.00;70.30;;;22.90;58.45;97507.41;5005622;28;20049;-38
2021/06/28 07:36:31;;;;;;;5.60;2.92;;;23.00;70.50;;;22.97;58.38;97508.09;5008243;28;20054;-38
2021/06/28 07:39:02;;;;;;;3.63;2.85;;;23.10;70.30;;;22.99;58.38;97508.66;5007741;28;20054;-38
2021/06/28 07:41:33;;;;;;;3.70;2.53;;;23.20;70.10;;;23.06;57.97;97505.00;5009098;28;20071;-39
2021/06/28 07:44:06;;;;;;;4.50;2.85;;;23.20;69.80;;;23.10;58.02;97508.88;5005826;28;20263;-40
2021/06/28 07:46:35;;;;;;;3.78;2.90;;;23.30;69.80;;;23.15;57.83;97508.97;5006519;28;20061;-40
2021/06/28 07:49:04;;;;;;;3.10;2.80;;;23.30;69.70;;;23.18;57.73;97511.97;5005905;28;20069;-39
2021/06/28 07:51:35;;;;;;;2.60;2.40;;;23.40;69.40;;;23.23;57.32;97508.56;5004548;28;20073;-39
2021/06/28 07:54:06;;;;;;;4.18;2.42;;;23.40;69.10;;;23.28;56.96;97518.66;5005442;28;20062;-40
2021/06/28 07:56:35;;;;;;;5.15;2.63;;;23.50;68.40;;;23.31;56.89;97520.91;5005802;28;20052;-39
2021/06/28 07:59:03;;;;;;;6.45;2.70;;;23.50;68.10;;;23.33;57.18;97521.47;5003295;28;20057;-40
2021/06/28 08:01:31;;;;;;;3.45;2.50;;;23.50;68.70;;;23.33;56.81;97516.03;5003389;28;20061;-40
2021/06/28 08:04:00;;;;;;;5.47;2.22;;;23.50;68.50;;;23.33;56.75;97508.72;4999683;28;20062;-40
2021/06/28 08:06:28;;;;;;;3.45;2.90;;;23.50;68.40;;;23.39;56.37;97510.44;5003838;28;20064;-40
2021/06/28 08:08:56;;;;;;;5.32;2.60;;;23.60;68.00;;;23.45;56.59;97515.97;5004449;28;20060;-39
2021/06/28 08:11:24;;;;;;;4.18;3.15;;;23.60;68.10;;;23.51;56.62;97506.81;5004752;28;20054;-39
2021/06/28 08:13:54;;;;;;;2.80;2.38;;;23.70;67.80;;;23.56;56.33;97506.91;5003559;28;20042;-39
2021/06/28 08:16:24;;;;;;;3.92;2.70;;;23.80;67.50;;;23.60;56.55;97497.19;5004458;28;20042;-39
2021/06/28 08:18:53;;;;;;;3.03;2.63;;;23.90;67.70;;;23.66;56.30;97498.09;5002784;28;20070;-40
2021/06/28 08:21:38;;;;;;;3.63;2.63;;;23.90;67.40;;;23.74;55.97;97494.94;4999634;28;20053;-39
2021/06/28 08:24:09;;;;;;;4.68;2.88;;;24.00;66.70;;;23.77;55.72;97495.25;5006156;28;20069;-40
2021/06/28 08:26:38;;;;;;;4.68;2.40;;;24.10;66.70;;;23.83;55.85;97495.38;5005871;28;20279;-40
2021/06/28 08:29:07;;;;;;;3.08;2.70;;;24.10;66.90;;;23.89;55.86;97488.94;5005400;28;20049;-39
2021/06/28 08:31:38;;;;;;;4.45;2.80;;;24.20;66.90;;;23.94;55.83;97487.13;5005071;28;20050;-39
2021/06/28 08:34:16;;;;;;;3.47;3.00;;;24.20;66.70;;;24.00;55.76;97485.28;5004044;28;20076;-40
2021/06/28 08:36:45;;;;;;;3.53;2.58;;;24.30;66.50;;;24.07;55.92;97498.69;5003566;28;20062;-39
2021/06/28 08:39:15;;;;;;;3.10;2.70;;;24.40;66.80;;;24.13;55.06;97490.31;5004770;28;20060;-39
2021/06/28 08:41:52;;;;;;;5.40;2.40;;;24.50;66.00;;;24.20;54.98;97492.06;5003937;28;20064;-39
2021/06/28 08:44:20;;;;;;;7.32;3.47;;;24.60;65.50;;;24.26;55.18;97491.03;5003941;28;20060;-39
2021/06/28 08:46:50;;;;;;;3.75;2.90;;;24.60;65.70;;;24.30;54.74;97500.34;5013277;28;20050;-39
2021/06/28 08:49:18;;;;;;;3.83;3.20;;;24.60;65.10;;;24.35;54.34;97506.66;5017852;28;20393;-39
2021/06/28 08:51:46;;;;;;;3.72;2.97;;;24.70;65.00;;;24.39;54.43;97512.44;5029931;28;20351;-39
2021/06/28 08:54:15;;;;;;;4.22;3.00;;;24.70;64.80;;;24.42;54.25;97511.91;5043055;28;20063;-39
2021/06/28 08:56:46;;;;;;;4.68;3.03;;;24.80;64.80;;;24.47;53.66;97520.16;5044328;28;20075;-39
2021/06/28 08:59:21;;;;;;;3.33;3.00;;;24.80;63.40;;;24.51;53.33;97525.94;5044117;28;20060;-39
2021/06/28 09:01:50;;;;;;;3.83;2.83;;;24.90;63.60;;;24.55;53.09;97521.63;5028094;28;20046;-39
2021/06/28 09:04:18;;;;;;;4.07;2.88;;;24.90;63.30;;;24.58;53.11;97523.00;5030216;28;20049;-39
2021/06/28 09:06:46;;;;;;;4.10;2.60;;;24.90;63.20;;;24.56;52.86;97523.25;5043479;28;20079;-39
2021/06/28 09:09:16;;;;;;;4.53;3.50;;;24.90;62.70;;;24.60;52.37;97520.84;5043042;28;20060;-39
2021/06/28 09:11:51;;;;;;;2.88;2.55;;;24.90;61.70;;;24.59;51.67;97519.22;5043736;28;20050;-39
2021/06/28 09:14:24;;;;;;;4.63;2.58;;;24.90;62.10;;;24.54;52.06;97526.25;5035269;28;20045;-39
2021/06/28 09:16:52;;;;;;;4.43;2.38;;;24.80;62.10;;;24.61;52.53;97520.59;5024702;28;20054;-39
2021/06/28 09:19:22;;;;;;;3.50;3.20;;;24.90;62.70;;;24.66;52.12;97528.00;5024887;28;20045;-38
2021/06/28 09:21:53;;;;;;;3.05;2.33;;;25.00;61.70;;;24.68;51.11;97529.41;5023547;28;20250;-39
2021/06/28 09:24:42;;;;;;;3.25;2.95;;;25.00;60.50;;;24.72;51.63;97527.00;5024309;28;20045;-38
2021/06/28 09:27:11;;;;;;;5.68;2.55;;;25.00;60.70;;;24.74;52.49;97531.09;5024760;28;20374;-38
2021/06/28 09:29:47;;;;;;;2.92;2.63;;;25.00;62.20;;;24.67;51.78;97524.22;5024609;28;20050;-39
2021/06/28 09:32:18;;;;;;;4.65;2.97;;;25.00;61.80;;;24.68;52.43;97523.97;5024375;28;20239;-39
2021/06/28 09:34:50;;;;;;;4.22;2.90;;;25.00;62.30;;;24.73;52.11;97523.19;5022859;28;20060;-39
2021/06/28 09:37:25;;;;;;;5.00;2.90;;;25.00;61.90;;;24.67;51.83;97525.03;5023337;28;20046;-39
2021/06/28 09:39:59;;;;;;;3.53;2.42;;;24.90;61.70;;;24.74;52.27;97516.66;5020330;28;20052;-38
2021/06/28 09:42:29;;;;;;;3.72;2.65;;;25.00;62.50;;;24.73;50.69;97523.19;5017730;28;20050;-39
2021/06/28 09:45:19;;;;;;;3.60;2.90;;;25.10;60.10;;;24.72;51.38;97513.38;5013494;28;20702;-39
2021/06/28 09:47:49;;;;;;;4.95;3.33;;;25.00;60.20;;;24.78;51.45;97517.81;5013850;28;20378;-39
2021/06/28 09:50:23;;;;;;;3.53;3.10;;;25.00;61.40;;;24.83;51.47;97511.56;5011740;28;20256;-39
2021/06/28 09:52:55;;;;;;;3.22;2.70;;;25.10;61.00;;;24.87;51.52;97499.09;5011565;28;20056;-38
2021/06/28 09:55:30;;;;;;;3.95;3.55;;;25.10;61.00;;;24.91;51.43;97501.06;5010974;28;20231;-38
2021/06/28 09:58:13;;;;;;;4.38;3.22;;;25.30;61.00;;;24.96;49.93;97501.09;5010306;28;20347;-39
2021/06/28 10:00:56;;;;;;;3.63;2.63;;;25.30;59.00;;;25.03;50.77;97497.34;5008445;28;20042;-39
2021/06/28 10:03:39;;;;;;;4.45;3.05;;;25.40;59.50;;;25.11;50.94;97503.16;5007421;28;20042;-38
2021/06/28 10:08:51;;;;;;;3.78;2.88;;;25.60;59.40;;;25.20;49.49;97491.78;5005797;28;20066;-38
2021/06/28 10:11:25;;;;;;;5.10;2.83;;;25.60;58.00;;;25.22;49.59;97492.34;4988932;28;20093;-38
2021/06/28 10:14:01;;;;;;;3.03;2.72;;;25.60;58.40;;;25.27;49.60;97486.97;5010820;28;20232;-38
2021/06/28 10:16:46;;;;;;;4.20;3.05;;;25.60;58.30;;;25.32;49.58;97482.38;5007155;28;20510;-38
2021/06/28 10:19:15;;;;;;;3.35;3.05;;;25.70;58.70;;;25.39;49.77;97487.59;5006267;28;20100;-38
2021/06/28 10:21:42;;;;;;;4.50;2.50;;;25.70;58.80;;;25.46;49.46;97477.31;5004158;28;20046;-38
2021/06/28 10:24:10;;;;;;;3.80;2.90;;;25.80;58.30;;;25.51;48.91;97473.78;5005900;28;20355;-38
2021/06/28 10:26:38;;;;;;;2.92;2.67;;;25.90;57.40;;;25.55;49.58;97480.34;5003833;28;20053;-40
2021/06/28 10:29:06;;;;;;;2.60;2.40;;;25.90;58.20;;;25.62;49.11;97480.97;5005450;28;20050;-38
2021/06/28 10:31:34;;;;;;;3.15;2.75;;;26.00;58.60;;;25.67;49.15;97477.47;5006408;28;20070;-38
2021/06/28 10:34:03;;;;;;;2.95;2.65;;;26.00;58.30;;;25.76;48.92;97480.50;5005676;28;20243;-38